createdAt,value
2022-09-21T00:01:22.386Z,96984.09
2022-09-21T00:03:53.881Z,96982.06
2022-09-21T00:06:22.975Z,96991.06
2022-09-21T00:08:51.118Z,96976.44
2022-09-21T00:11:21.074Z,96979.19
2022-09-21T00:13:48.697Z,96985.81
2022-09-21T00:16:17.071Z,96989.38
2022-09-21T00:18:46.006Z,96979.81
2022-09-21T00:21:15.748Z,96976.91
2022-09-21T00:23:44.343Z,96980.28
2022-09-21T00:26:14.364Z,96985.69
2022-09-21T00:28:42.624Z,96975.97
2022-09-21T00:31:12.336Z,96976.69
2022-09-21T00:33:40.839Z,96977.75
2022-09-21T00:36:11.455Z,96977.88
2022-09-21T00:38:39.487Z,96975.94
2022-09-21T00:41:08.996Z,96976.28
2022-09-21T00:43:38.620Z,96978.84
2022-09-21T00:46:14.030Z,96981.00
2022-09-21T00:48:42.090Z,96986.75
2022-09-21T00:51:11.435Z,96976.34
2022-09-21T00:53:39.771Z,96982.69
2022-09-21T00:56:10.452Z,96983.41
2022-09-21T00:58:43.836Z,96984.47
2022-09-21T01:01:12.987Z,96980.41
2022-09-21T01:03:40.635Z,96981.00
2022-09-21T01:06:08.215Z,96981.50
2022-09-21T01:08:37.753Z,96985.31
2022-09-21T01:11:28.098Z,96983.88
2022-09-21T01:14:12.646Z,96984.50
2022-09-21T01:16:46.359Z,96986.41
2022-09-21T01:19:32.709Z,96984.94
2022-09-21T01:22:08.326Z,96979.81
2022-09-21T01:24:49.655Z,96981.09
2022-09-21T01:27:36.038Z,96988.44
2022-09-21T01:30:08.364Z,96991.06
2022-09-21T01:32:39.616Z,96988.06
2022-09-21T01:35:11.784Z,96992.25
2022-09-21T01:37:43.879Z,96988.28
2022-09-21T01:40:16.538Z,96987.94
2022-09-21T01:42:45.911Z,96996.31
2022-09-21T01:45:17.238Z,96990.78
2022-09-21T01:47:48.463Z,96993.44
2022-09-21T01:50:18.016Z,96991.91
2022-09-21T01:52:53.143Z,96999.66
2022-09-21T01:55:28.420Z,97000.16
2022-09-21T01:58:01.011Z,97005.78
2022-09-21T02:00:30.877Z,97007.06
2022-09-21T02:03:03.111Z,97005.75
2022-09-21T02:05:31.122Z,97003.72
2022-09-21T02:07:59.604Z,97011.63
2022-09-21T02:10:33.180Z,97003.84
2022-09-21T02:13:05.580Z,96998.59
2022-09-21T02:15:48.252Z,97003.00
2022-09-21T02:18:22.799Z,97004.19
2022-09-21T02:20:57.047Z,97008.03
2022-09-21T02:23:29.040Z,96996.50
2022-09-21T02:26:04.171Z,97006.28
2022-09-21T02:28:44.346Z,96999.69
2022-09-21T02:31:19.241Z,97000.06
2022-09-21T02:33:59.740Z,96996.88
2022-09-21T02:36:32.546Z,96999.63
2022-09-21T02:39:06.212Z,96995.44
2022-09-21T02:41:39.696Z,97006.66
2022-09-21T02:44:12.788Z,96994.53
2022-09-21T02:46:46.677Z,96994.53
2022-09-21T02:49:20.773Z,97000.97
2022-09-21T02:51:52.832Z,96999.06
2022-09-21T02:54:24.927Z,96994.53
2022-09-21T02:56:53.953Z,97006.88
2022-09-21T02:59:21.626Z,96996.44
2022-09-21T03:01:50.482Z,97001.22
2022-09-21T03:04:18.547Z,96992.34
2022-09-21T03:06:46.001Z,96996.88
2022-09-21T03:09:13.487Z,96997.09
2022-09-21T03:11:42.354Z,97001.22
2022-09-21T03:14:10.046Z,96999.22
2022-09-21T03:16:37.915Z,96998.03
2022-09-21T03:19:06.800Z,97001.84
2022-09-21T03:21:34.272Z,96998.16
2022-09-21T03:24:01.895Z,97008.97
2022-09-21T03:26:29.688Z,97004.44
2022-09-21T03:28:57.396Z,97006.25
2022-09-21T03:31:25.032Z,97018.09
2022-09-21T03:33:52.626Z,97012.63
2022-09-21T03:36:21.883Z,97019.06
2022-09-21T03:38:49.924Z,97017.03
2022-09-21T03:41:18.093Z,97023.81
2022-09-21T03:43:45.568Z,97023.09
2022-09-21T03:46:13.151Z,97018.28
2022-09-21T03:48:42.354Z,97020.78
2022-09-21T03:51:09.888Z,97015.13
2022-09-21T03:53:38.710Z,97021.09
2022-09-21T03:56:06.411Z,97027.34
2022-09-21T03:58:33.891Z,97025.00
2022-09-21T04:01:02.627Z,97019.84
2022-09-21T04:03:30.475Z,97023.09
2022-09-21T04:05:58.002Z,97023.81
2022-09-21T04:08:25.474Z,97017.03
2022-09-21T04:10:56.234Z,97020.97
2022-09-21T04:13:24.726Z,97021.91
2022-09-21T04:15:52.311Z,97022.25
2022-09-21T04:18:20.159Z,97023.31
2022-09-21T04:20:47.754Z,97019.66
2022-09-21T04:23:15.220Z,97027.13
2022-09-21T04:25:42.706Z,97023.88
2022-09-21T04:28:11.552Z,97026.13
2022-09-21T04:30:39.040Z,97026.34
2022-09-21T04:33:06.582Z,97034.44
2022-09-21T04:35:34.142Z,97026.41
2022-09-21T04:38:01.847Z,97033.31
2022-09-21T04:40:29.361Z,97036.59
2022-09-21T04:42:56.863Z,97041.69
2022-09-21T04:45:25.757Z,97048.94
2022-09-21T04:47:53.226Z,97045.50
2022-09-21T04:50:20.734Z,97047.78
2022-09-21T04:52:48.643Z,97051.03
2022-09-21T04:55:16.859Z,97046.19
2022-09-21T04:57:44.331Z,97060.88
2022-09-21T05:00:12.775Z,97056.97
2022-09-21T05:02:41.581Z,97059.50
2022-09-21T05:05:09.449Z,97058.25
2022-09-21T05:07:36.920Z,97067.50
2022-09-21T05:10:03.820Z,97071.41
2022-09-21T05:12:31.513Z,97079.22
2022-09-21T05:14:58.998Z,97077.78
2022-09-21T05:17:26.631Z,97081.16
2022-09-21T05:19:55.525Z,97083.75
2022-09-21T05:22:23.315Z,97083.63
2022-09-21T05:24:50.801Z,97088.09
2022-09-21T05:27:18.266Z,97084.75
2022-09-21T05:29:46.324Z,97080.13
2022-09-21T05:32:19.879Z,97083.97
2022-09-21T05:34:58.908Z,97092.03
2022-09-21T05:37:44.242Z,97082.38
2022-09-21T05:40:13.772Z,97082.84
2022-09-21T05:42:42.210Z,97094.22
2022-09-21T05:45:15.212Z,97088.41
2022-09-21T05:47:51.736Z,97087.28
2022-09-21T05:50:34.362Z,97088.03
2022-09-21T05:53:12.608Z,97091.22
2022-09-21T05:55:52.670Z,97086.63
2022-09-21T05:58:28.069Z,97084.91
2022-09-21T06:01:07.541Z,97080.25
2022-09-21T06:03:36.184Z,97084.63
2022-09-21T06:06:05.312Z,97087.47
2022-09-21T06:08:32.812Z,97084.16
2022-09-21T06:11:00.452Z,97084.69
2022-09-21T06:13:28.296Z,97083.16
2022-09-21T06:15:55.719Z,97082.56
2022-09-21T06:18:23.156Z,97087.38
2022-09-21T06:20:50.664Z,97084.25
2022-09-21T06:23:19.445Z,97092.03
2022-09-21T06:25:56.050Z,97086.63
2022-09-21T06:28:26.518Z,97088.91
2022-09-21T06:30:55.046Z,97083.78
2022-09-21T06:33:23.560Z,97087.06
2022-09-21T06:35:55.327Z,97090.19
2022-09-21T06:38:25.624Z,97076.47
2022-09-21T06:40:54.008Z,97088.75
2022-09-21T06:43:21.715Z,97086.06
2022-09-21T06:45:55.140Z,97090.88
2022-09-21T06:48:23.695Z,97090.44
2022-09-21T06:50:51.616Z,97086.59
2022-09-21T06:53:19.130Z,97088.28
2022-09-21T06:55:47.897Z,97082.16
2022-09-21T06:58:15.438Z,97087.41
2022-09-21T07:00:42.906Z,97084.00
2022-09-21T07:03:12.001Z,97088.41
2022-09-21T07:05:39.505Z,97100.47
2022-09-21T07:10:04.895Z,97094.25
2022-09-21T07:10:58.854Z,97096.94
2022-09-21T07:13:26.496Z,97111.50
2022-09-21T07:15:53.991Z,97105.19
2022-09-21T07:18:21.807Z,97109.56
2022-09-21T07:20:49.508Z,97115.00
2022-09-21T07:23:19.168Z,97103.41
2022-09-21T07:25:49.104Z,97103.31
2022-09-21T07:28:18.199Z,97105.81
2022-09-21T07:30:45.776Z,97105.16
2022-09-21T07:33:13.239Z,97117.03
2022-09-21T07:35:40.673Z,97106.34
2022-09-21T07:38:11.382Z,97115.16
2022-09-21T07:40:38.843Z,97111.97
2022-09-21T07:43:06.450Z,97104.34
2022-09-21T07:45:35.264Z,97102.91
2022-09-21T07:48:05.905Z,97100.13
2022-09-21T07:50:34.598Z,97099.31
2022-09-21T07:53:02.419Z,97094.78
2022-09-21T07:55:31.248Z,97094.78
2022-09-21T07:58:16.404Z,97100.00
2022-09-21T08:00:45.247Z,97093.25
2022-09-21T08:03:12.900Z,97102.91
2022-09-21T08:05:40.352Z,97111.84
2022-09-21T08:08:08.102Z,97111.63
2022-09-21T08:10:35.981Z,97115.41
2022-09-21T08:13:03.539Z,97113.88
2022-09-21T08:15:48.962Z,97118.97
2022-09-21T08:18:18.813Z,97118.09
2022-09-21T08:20:54.415Z,97119.25
2022-09-21T08:23:21.913Z,97117.66
2022-09-21T08:25:49.371Z,97114.88
2022-09-21T08:28:18.438Z,97123.25
2022-09-21T08:30:45.902Z,97128.16
2022-09-21T08:33:13.508Z,97119.66
2022-09-21T08:35:42.276Z,97122.69
2022-09-21T08:38:10.027Z,97125.94
2022-09-21T08:40:41.699Z,97119.94
2022-09-21T08:43:13.194Z,97123.72
2022-09-21T08:45:43.241Z,97126.22
2022-09-21T08:48:16.267Z,97126.88
2022-09-21T08:50:49.338Z,97132.03
2022-09-21T08:53:20.548Z,97127.66
2022-09-21T08:55:48.324Z,97124.50
2022-09-21T08:58:23.763Z,97121.03
2022-09-21T09:00:58.120Z,97125.53
2022-09-21T09:03:47.749Z,97123.97
2022-09-21T09:06:26.870Z,97122.88
2022-09-21T09:09:25.301Z,97118.72
2022-09-21T09:12:10.828Z,97127.88
2022-09-21T09:14:55.074Z,97124.97
2022-09-21T09:17:39.859Z,97123.72
2022-09-21T09:20:14.198Z,97127.75
2022-09-21T09:22:47.287Z,97118.53
2022-09-21T09:25:21.705Z,97114.72
2022-09-21T09:27:54.220Z,97121.31
2022-09-21T09:30:24.685Z,97117.91
2022-09-21T09:32:58.705Z,97118.53
2022-09-21T09:35:29.664Z,97114.88
2022-09-21T09:38:05.949Z,97118.03
2022-09-21T09:40:52.735Z,97112.72
2022-09-21T09:43:32.616Z,97113.38
2022-09-21T09:46:12.707Z,97108.00
2022-09-21T09:49:01.999Z,97099.03
2022-09-21T09:51:29.496Z,97118.59
2022-09-21T09:54:00.965Z,97112.91
2022-09-21T09:56:28.550Z,97109.78
2022-09-21T09:58:59.794Z,97112.41
2022-09-21T10:01:43.849Z,97110.69
2022-09-21T10:04:13.404Z,97105.66
2022-09-21T10:06:46.049Z,97108.59
2022-09-21T10:09:24.488Z,97102.50
2022-09-21T10:11:53.596Z,97098.44
2022-09-21T10:14:23.767Z,97094.56
2022-09-21T10:16:52.903Z,97096.69
2022-09-21T10:19:24.135Z,97095.00
2022-09-21T10:21:58.075Z,97113.72
2022-09-21T10:24:29.437Z,97106.56
2022-09-21T10:27:04.569Z,97102.63
2022-09-21T10:29:43.544Z,97095.25
2022-09-21T10:32:23.456Z,97088.84
2022-09-21T10:35:15.887Z,97090.03
2022-09-21T10:37:45.474Z,97095.28
2022-09-21T10:40:27.224Z,97091.56
2022-09-21T10:42:58.545Z,97093.34
2022-09-21T10:45:27.611Z,97077.59
2022-09-21T10:47:57.863Z,97085.41
2022-09-21T10:50:29.086Z,97082.50
2022-09-21T10:53:01.160Z,97083.00
2022-09-21T10:55:31.989Z,97082.66
2022-09-21T10:58:00.775Z,97082.88
2022-09-21T11:00:38.335Z,97079.75
2022-09-21T11:03:34.595Z,97087.03
2022-09-21T11:06:06.927Z,97078.25
2022-09-21T11:08:39.388Z,97070.88
2022-09-21T11:11:26.558Z,97076.03
2022-09-21T11:14:01.015Z,97080.75
2022-09-21T11:16:34.280Z,97078.69
2022-09-21T11:19:15.898Z,97077.16
2022-09-21T11:21:48.020Z,97074.75
2022-09-21T11:24:25.198Z,97077.47
2022-09-21T11:26:59.134Z,97069.41
2022-09-21T11:29:32.398Z,97071.03
2022-09-21T11:32:13.291Z,97070.03
2022-09-21T11:34:59.146Z,97071.09
2022-09-21T11:37:39.912Z,97060.94
2022-09-21T11:40:21.843Z,97061.00
2022-09-21T11:43:01.853Z,97060.22
2022-09-21T11:45:50.644Z,97060.38
2022-09-21T11:48:29.363Z,97052.19
2022-09-21T11:51:08.716Z,97052.06
2022-09-21T11:53:46.698Z,97046.00
2022-09-21T11:56:35.481Z,97047.22
2022-09-21T11:59:18.015Z,97043.75
2022-09-21T12:02:01.989Z,97044.75
2022-09-21T12:04:43.290Z,97046.81
2022-09-21T12:07:27.510Z,97046.75
2022-09-21T12:10:11.527Z,97039.59
2022-09-21T12:12:44.552Z,97039.47
2022-09-21T12:15:21.438Z,97036.53
2022-09-21T12:17:58.493Z,97027.50
2022-09-21T12:20:35.835Z,97034.72
2022-09-21T12:23:09.588Z,97015.94
2022-09-21T12:25:41.772Z,97019.28
2022-09-21T12:28:17.421Z,97018.66
2022-09-21T12:30:51.022Z,97017.16
2022-09-21T12:33:23.459Z,97018.59
2022-09-21T12:35:56.837Z,97026.81
2022-09-21T12:38:29.362Z,97021.38
2022-09-21T12:41:05.187Z,97026.97
2022-09-21T12:43:39.201Z,97017.56
2022-09-21T12:46:14.372Z,97015.13
2022-09-21T12:48:42.381Z,97008.03
2022-09-21T12:51:16.718Z,97017.88
2022-09-21T12:53:50.861Z,97018.50
2022-09-21T12:56:30.779Z,97015.50
2022-09-21T12:59:11.911Z,97014.53
2022-09-21T13:01:46.821Z,97007.56
2022-09-21T13:04:28.904Z,97009.44
2022-09-21T13:07:30.008Z,97006.16
2022-09-21T13:09:58.649Z,97010.34
2022-09-21T13:12:30.489Z,97002.09
2022-09-21T13:15:03.752Z,97002.38
2022-09-21T13:17:34.181Z,96992.81
2022-09-21T13:20:07.120Z,96994.72
2022-09-21T13:22:37.307Z,96979.44
2022-09-21T13:25:09.276Z,96994.22
2022-09-21T13:28:01.489Z,96981.50
2022-09-21T13:30:40.950Z,96991.50
2022-09-21T13:33:40.657Z,96995.47
2022-09-21T13:36:31.155Z,96989.63
2022-09-21T13:39:14.283Z,96986.16
2022-09-21T13:42:03.786Z,96992.84
2022-09-21T13:44:42.372Z,96996.28
2022-09-21T13:47:11.267Z,96993.72
2022-09-21T13:49:55.894Z,97000.72
2022-09-21T13:52:31.470Z,96990.97
2022-09-21T13:55:01.769Z,96989.53
2022-09-21T13:57:36.791Z,96985.22
2022-09-21T14:00:28.496Z,96972.81
2022-09-21T14:03:00.484Z,96978.59
2022-09-21T14:05:34.917Z,96981.22
2022-09-21T14:08:04.337Z,96975.22
2022-09-21T14:10:36.079Z,96973.19
2022-09-21T14:13:07.369Z,96979.09
2022-09-21T14:15:40.646Z,96983.22
2022-09-21T14:18:21.389Z,96978.41
2022-09-21T14:21:18.329Z,96971.41
2022-09-21T14:24:20.198Z,96978.50
2022-09-21T14:27:02.682Z,96979.03
2022-09-21T14:29:40.255Z,96976.25
2022-09-21T14:32:16.872Z,96967.63
2022-09-21T14:34:48.271Z,96965.75
2022-09-21T14:37:27.555Z,96968.88
2022-09-21T14:39:55.910Z,96967.63
2022-09-21T14:42:27.268Z,96964.69
2022-09-21T14:44:57.820Z,96974.66
2022-09-21T14:47:51.949Z,96964.72
2022-09-21T14:50:31.999Z,96961.19
2022-09-21T14:53:29.292Z,96957.28
2022-09-21T14:56:10.096Z,96958.44
2022-09-21T14:58:49.967Z,96959.69
2022-09-21T15:01:37.277Z,96955.78
2022-09-21T15:04:24.292Z,96950.63
2022-09-21T15:07:18.532Z,96953.38
2022-09-21T15:10:21.823Z,96950.34
2022-09-21T15:12:57.244Z,96949.66
2022-09-21T15:15:34.672Z,96935.97
2022-09-21T15:18:03.752Z,96945.56
2022-09-21T15:20:33.064Z,96945.56
2022-09-21T15:23:02.051Z,96935.25
2022-09-21T15:25:34.396Z,96935.34
2022-09-21T15:28:03.901Z,96935.50
2022-09-21T15:30:34.060Z,96933.72
2022-09-21T15:33:02.987Z,96933.22
2022-09-21T15:35:32.528Z,96932.44
2022-09-21T15:38:01.764Z,96942.13
2022-09-21T15:40:33.160Z,96942.28
2022-09-21T15:43:04.409Z,96937.28
2022-09-21T15:45:37.189Z,96940.50
2022-09-21T15:48:10.043Z,96934.31
2022-09-21T15:50:38.984Z,96942.78
2022-09-21T15:53:10.513Z,96938.81
2022-09-21T15:55:39.389Z,96936.50
2022-09-21T15:58:20.754Z,96933.72
2022-09-21T16:00:54.931Z,96930.91
2022-09-21T16:03:25.833Z,96930.41
2022-09-21T16:05:55.374Z,96925.69
2022-09-21T16:08:33.009Z,96937.47
2022-09-21T16:11:14.997Z,96934.38
2022-09-21T16:14:00.967Z,96930.94
2022-09-21T16:16:28.778Z,96937.91
2022-09-21T16:18:59.906Z,96946.28
2022-09-21T16:21:29.147Z,96943.69
2022-09-21T16:23:58.617Z,96937.31
2022-09-21T16:26:32.194Z,96943.84
2022-09-21T16:29:18.947Z,96940.91
2022-09-21T16:31:50.169Z,96939.13
2022-09-21T16:34:36.727Z,96942.31
2022-09-21T16:37:24.162Z,96942.63
2022-09-21T16:39:52.858Z,96943.19
2022-09-21T16:42:23.110Z,96949.53
2022-09-21T16:44:51.418Z,96953.66
2022-09-21T16:47:25.158Z,96949.41
2022-09-21T16:49:56.392Z,96946.63
2022-09-21T16:52:24.506Z,96948.91
2022-09-21T16:54:52.288Z,96950.34
2022-09-21T16:57:21.356Z,96949.63
2022-09-21T16:59:50.259Z,96941.84
2022-09-21T17:02:18.834Z,96946.53
2022-09-21T17:04:47.872Z,96941.94
2022-09-21T17:07:16.652Z,96938.97
2022-09-21T17:09:47.455Z,96951.41
2022-09-21T17:12:17.485Z,96952.59
2022-09-21T17:14:47.281Z,96951.97
2022-09-21T17:17:18.641Z,96952.44
2022-09-21T17:19:49.649Z,96959.44
2022-09-21T17:22:18.061Z,96960.56
2022-09-21T17:24:50.931Z,96959.72
2022-09-21T17:27:21.366Z,96960.66
2022-09-21T17:29:51.106Z,96957.94
2022-09-21T17:32:20.654Z,96970.69
2022-09-21T17:34:53.198Z,96965.09
2022-09-21T17:37:21.772Z,96970.16
2022-09-21T17:39:49.814Z,96973.22
2022-09-21T17:42:21.093Z,96971.75
2022-09-21T17:45:04.982Z,96965.81
2022-09-21T17:47:33.947Z,96974.53
2022-09-21T17:50:15.416Z,96978.63
2022-09-21T17:53:02.267Z,96981.59
2022-09-21T17:55:30.895Z,96984.59
2022-09-21T17:58:09.843Z,96993.81
2022-09-21T18:00:50.396Z,96985.28
2022-09-21T18:03:22.737Z,96981.63
2022-09-21T18:05:52.682Z,96986.44
2022-09-21T18:08:20.539Z,96987.69
2022-09-21T18:11:04.247Z,96992.94
2022-09-21T18:13:42.513Z,96988.22
2022-09-21T18:16:22.710Z,96991.38
2022-09-21T18:18:59.454Z,96986.09
2022-09-21T18:21:27.995Z,96994.72
2022-09-21T18:24:15.383Z,96997.63
2022-09-21T18:26:43.684Z,96992.19
2022-09-21T18:29:38.919Z,96989.53
2022-09-21T18:32:25.231Z,96998.72
2022-09-21T18:35:18.344Z,96998.88
2022-09-21T18:37:56.682Z,96999.97
2022-09-21T18:40:32.972Z,97000.53
2022-09-21T18:43:11.667Z,97000.53
2022-09-21T18:45:43.751Z,97005.00
2022-09-21T18:48:23.415Z,97005.59
2022-09-21T18:50:57.719Z,97005.88
2022-09-21T18:53:33.851Z,97011.47
2022-09-21T18:56:02.257Z,97009.25
2022-09-21T18:58:30.924Z,97002.81
2022-09-21T19:01:00.249Z,97003.94
2022-09-21T19:03:29.904Z,97000.31
2022-09-21T19:06:16.097Z,97004.75
2022-09-21T19:08:50.272Z,97000.28
2022-09-21T19:11:27.414Z,97001.94
2022-09-21T19:14:01.718Z,96999.44
2022-09-21T19:16:34.854Z,96998.34
2022-09-21T19:19:15.544Z,96992.63
2022-09-21T19:21:47.647Z,96997.47
2022-09-21T19:24:23.991Z,96995.69
2022-09-21T19:27:11.953Z,96989.53
2022-09-21T19:29:50.185Z,96992.59
2022-09-21T19:32:19.439Z,96999.00
2022-09-21T19:34:48.550Z,96989.13
2022-09-21T19:37:16.206Z,96998.16
2022-09-21T19:39:44.143Z,97000.50
2022-09-21T19:42:29.907Z,96997.22
2022-09-21T19:45:13.498Z,96996.88
2022-09-21T19:47:48.084Z,96999.00
2022-09-21T19:50:19.564Z,96994.69
2022-09-21T19:52:47.692Z,96993.84
2022-09-21T19:55:35.065Z,96997.72
2022-09-21T19:58:20.752Z,96991.97
2022-09-21T20:00:52.885Z,96998.53
2022-09-21T20:03:31.237Z,96994.34
2022-09-21T20:06:05.935Z,97003.81
2022-09-21T20:08:40.192Z,96992.22
2022-09-21T20:11:12.607Z,96989.22
2022-09-21T20:13:53.014Z,96988.59
2022-09-21T20:16:37.187Z,96995.38
2022-09-21T20:19:13.119Z,96990.06
2022-09-21T20:21:44.258Z,96986.47
2022-09-21T20:24:20.293Z,96992.19
2022-09-21T20:26:49.970Z,96985.88
2022-09-21T20:29:18.163Z,96986.56
2022-09-21T20:31:47.280Z,96992.47
2022-09-21T20:34:15.477Z,96985.09
2022-09-21T20:36:44.250Z,96988.25
2022-09-21T20:39:11.758Z,96991.09
2022-09-21T20:41:39.532Z,96990.56
2022-09-21T20:44:07.021Z,96986.09
2022-09-21T20:46:34.459Z,96993.03
2022-09-21T20:49:04.678Z,96991.91
2022-09-21T20:51:33.838Z,97001.09
2022-09-21T20:54:03.059Z,96994.41
2022-09-21T20:56:31.300Z,97005.00
2022-09-21T20:58:59.267Z,97009.44
2022-09-21T21:01:26.863Z,97010.09
2022-09-21T21:04:01.474Z,97011.06
2022-09-21T21:06:31.112Z,97016.34
2022-09-21T21:08:59.068Z,97010.34
2022-09-21T21:11:28.420Z,97018.03
2022-09-21T21:13:56.731Z,97014.41
2022-09-21T21:16:24.577Z,97009.94
2022-09-21T21:18:52.099Z,97014.28
2022-09-21T21:21:19.530Z,97010.94
2022-09-21T21:24:07.690Z,97018.50
2022-09-21T21:26:57.765Z,97017.34
2022-09-21T21:29:24.491Z,97022.97
2022-09-21T21:31:51.997Z,97014.56
2022-09-21T21:34:19.479Z,97014.44
2022-09-21T21:36:46.974Z,97008.44
2022-09-21T21:39:14.521Z,97008.09
2022-09-21T21:41:43.671Z,97002.81
2022-09-21T21:44:11.393Z,96999.38
2022-09-21T21:46:39.207Z,96996.19
2022-09-21T21:49:07.014Z,96997.00
2022-09-21T21:51:34.541Z,96993.66
2022-09-21T21:54:02.330Z,96997.81
2022-09-21T21:56:29.804Z,96996.78
2022-09-21T21:58:58.648Z,96989.72
2022-09-21T22:01:28.049Z,96984.88
2022-09-21T22:03:57.105Z,96984.81
2022-09-21T22:06:25.153Z,96981.13
2022-09-21T22:08:53.260Z,96985.91
2022-09-21T22:11:22.190Z,96987.13
2022-09-21T22:13:50.334Z,96988.22
2022-09-21T22:16:22.010Z,96986.69
2022-09-21T22:18:50.692Z,96984.28
2022-09-21T22:21:21.482Z,96979.97
2022-09-21T22:23:53.038Z,96975.19
2022-09-21T22:26:21.588Z,96976.00
2022-09-21T22:28:51.128Z,96976.69
2022-09-21T22:31:21.625Z,96979.38
2022-09-21T22:33:49.870Z,96968.69
2022-09-21T22:36:19.426Z,96973.00
2022-09-21T22:38:47.905Z,96974.56
2022-09-21T22:41:17.877Z,96972.88
2022-09-21T22:43:46.177Z,96970.41
2022-09-21T22:46:14.294Z,96975.69
2022-09-21T22:48:43.622Z,96979.31
2022-09-21T22:51:11.442Z,96970.09
2022-09-21T22:53:39.508Z,96964.38
2022-09-21T22:56:09.381Z,96972.66
2022-09-21T22:58:39.919Z,96980.44
2022-09-21T23:01:10.366Z,96974.13
2022-09-21T23:03:39.029Z,96968.31
2022-09-21T23:06:10.239Z,96967.25
2022-09-21T23:08:38.881Z,96967.50
2022-09-21T23:11:08.016Z,96970.19
2022-09-21T23:13:35.537Z,96967.88
2022-09-21T23:16:04.625Z,96965.59
2022-09-21T23:18:32.751Z,96970.75
2022-09-21T23:21:01.492Z,96963.31
2022-09-21T23:23:31.316Z,96966.91
2022-09-21T23:26:03.562Z,96971.94
2022-09-21T23:28:31.062Z,96972.56
2022-09-21T23:31:00.275Z,96965.56
2022-09-21T23:33:32.273Z,96961.22
2022-09-21T23:36:00.097Z,96962.44
2022-09-21T23:38:29.321Z,96956.66
2022-09-21T23:41:06.453Z,96956.84
2022-09-21T23:43:35.115Z,96951.56
2022-09-21T23:46:02.930Z,96950.88
2022-09-21T23:48:30.881Z,96956.66
2022-09-21T23:50:59.393Z,96953.50
2022-09-21T23:53:28.357Z,96945.94
2022-09-21T23:55:57.457Z,96942.50
2022-09-21T23:58:27.414Z,96934.59
